createdAt,value
2023-03-17T00:03:52.894Z,60.25
2023-03-17T00:08:56.559Z,55.92
2023-03-17T00:13:58.992Z,56.63
2023-03-17T00:19:02.030Z,58.27
2023-03-17T00:24:04.604Z,59.98
2023-03-17T00:29:08.311Z,66.77
2023-03-17T00:34:16.593Z,69.96
2023-03-17T00:39:19.603Z,65.46
2023-03-17T00:44:22.049Z,61.50
2023-03-17T00:49:26.199Z,59.74
2023-03-17T00:54:28.776Z,56.01
2023-03-17T00:59:38.973Z,57.29
2023-03-17T01:04:47.572Z,58.16
2023-03-17T01:09:52.618Z,59.11
2023-03-17T01:14:55.304Z,60.16
2023-03-17T01:19:58.399Z,70.49
2023-03-17T01:25:01.556Z,72.27
2023-03-17T01:30:06.152Z,67.53
2023-03-17T01:35:08.858Z,62.04
2023-03-17T01:40:17.261Z,57.13
2023-03-17T01:45:49.689Z,58.38
2023-03-17T01:50:53.814Z,59.89
2023-03-17T01:55:57.859Z,68.69
2023-03-17T02:01:01.368Z,68.21
2023-03-17T02:06:04.820Z,64.32
2023-03-17T02:11:07.271Z,62.13
2023-03-17T02:16:17.182Z,61.56
2023-03-17T02:21:31.211Z,60.92
2023-03-17T02:26:35.488Z,59.96
2023-03-17T02:31:38.163Z,58.77
2023-03-17T02:36:40.718Z,55.77
2023-03-17T02:41:43.524Z,57.34
2023-03-17T02:46:46.880Z,60.02
2023-03-17T02:51:49.359Z,68.69
2023-03-17T02:56:51.794Z,69.29
2023-03-17T03:01:55.983Z,65.60
2023-03-17T03:06:58.411Z,64.01
2023-03-17T03:12:00.915Z,62.92
2023-03-17T03:17:04.336Z,62.94
2023-03-17T03:22:07.009Z,62.03
2023-03-17T03:27:09.498Z,61.36
2023-03-17T03:32:12.116Z,60.82
2023-03-17T03:37:15.193Z,60.55
2023-03-17T03:42:18.077Z,60.66
2023-03-17T03:47:20.599Z,60.97
2023-03-17T03:52:23.352Z,57.51
2023-03-17T03:57:25.945Z,57.90
2023-03-17T04:02:28.514Z,59.06
2023-03-17T04:07:31.289Z,61.96
2023-03-17T04:12:33.750Z,71.07
2023-03-17T04:17:36.509Z,70.65
2023-03-17T04:22:39.688Z,66.40
2023-03-17T04:27:43.266Z,63.86
2023-03-17T04:32:46.395Z,62.52
2023-03-17T04:37:50.358Z,61.69
2023-03-17T04:42:52.881Z,59.94
2023-03-17T04:47:55.748Z,56.11
2023-03-17T04:52:58.205Z,56.92
2023-03-17T04:58:01.337Z,57.78
2023-03-17T05:03:07.123Z,59.84
2023-03-17T05:08:13.679Z,65.61
2023-03-17T05:13:16.400Z,69.10
2023-03-17T05:18:20.846Z,66.40
2023-03-17T05:23:23.398Z,64.37
2023-03-17T05:28:26.813Z,62.38
2023-03-17T05:33:29.552Z,60.68
2023-03-17T05:38:32.264Z,56.29
2023-03-17T05:43:34.695Z,56.49
2023-03-17T05:48:37.200Z,63.06
2023-03-17T05:53:39.722Z,65.29
2023-03-17T05:58:42.539Z,61.79
2023-03-17T06:03:45.190Z,60.98
2023-03-17T06:08:47.884Z,60.16
2023-03-17T06:13:50.396Z,59.66
2023-03-17T06:18:52.900Z,56.88
2023-03-17T06:23:55.344Z,60.45
2023-03-17T06:28:57.816Z,67.42
2023-03-17T06:34:00.307Z,66.37
2023-03-17T06:39:03.003Z,62.87
2023-03-17T06:44:06.201Z,60.89
2023-03-17T06:49:08.902Z,56.65
2023-03-17T06:54:12.255Z,57.90
2023-03-17T06:59:14.813Z,63.94
2023-03-17T07:04:19.525Z,65.31
2023-03-17T07:09:22.123Z,61.16
2023-03-17T07:14:26.977Z,55.73
2023-03-17T07:19:31.103Z,58.61
2023-03-17T07:24:34.253Z,63.40
2023-03-17T07:29:36.789Z,59.44
2023-03-17T07:34:39.884Z,54.48
2023-03-17T07:39:42.584Z,62.27
2023-03-17T07:44:45.477Z,61.85
2023-03-17T07:49:48.072Z,57.62
2023-03-17T07:54:52.009Z,63.47
2023-03-17T07:59:54.783Z,56.61
2023-03-17T08:04:57.259Z,59.47
2023-03-17T08:09:59.900Z,63.04
2023-03-17T08:15:03.539Z,56.97
2023-03-17T08:20:06.565Z,58.90
2023-03-17T08:25:09.783Z,64.97
2023-03-17T08:30:12.904Z,62.00
2023-03-17T08:35:16.898Z,59.23
2023-03-17T08:40:19.854Z,62.40
2023-03-17T08:45:22.838Z,57.82
2023-03-17T08:50:25.559Z,59.88
2023-03-17T08:55:28.294Z,58.71
2023-03-17T09:00:31.028Z,61.74
2023-03-17T09:05:36.900Z,55.65
2023-03-17T09:10:43.111Z,57.94
2023-03-17T09:15:46.747Z,61.95
2023-03-17T09:20:49.208Z,54.94
2023-03-17T09:25:52.403Z,58.51
2023-03-17T09:30:59.359Z,61.33
2023-03-17T09:36:03.079Z,60.41
2023-03-17T09:41:41.896Z,56.19
2023-03-17T09:47:18.163Z,58.21
2023-03-17T09:52:29.079Z,59.13
2023-03-17T09:57:35.663Z,60.96
2023-03-17T10:02:38.455Z,61.75
2023-03-17T10:07:47.057Z,58.46
2023-03-17T10:13:08.399Z,56.02
2023-03-17T10:18:13.727Z,56.57
2023-03-17T10:23:20.407Z,58.43
2023-03-17T10:28:29.736Z,58.63
2023-03-17T10:33:33.104Z,58.30
2023-03-17T10:38:36.866Z,58.98
2023-03-17T10:43:48.610Z,57.83
2023-03-17T10:48:54.360Z,57.88
2023-03-17T10:54:00.516Z,57.61
2023-03-17T10:59:09.018Z,57.19
2023-03-17T11:04:30.042Z,57.03
2023-03-17T11:09:36.311Z,56.56
2023-03-17T11:14:44.336Z,55.67
2023-03-17T11:20:05.795Z,54.37
2023-03-17T11:25:25.968Z,54.85
2023-03-17T11:30:35.266Z,54.33
2023-03-17T11:36:07.034Z,53.69
2023-03-17T11:41:26.165Z,52.69
2023-03-17T11:46:29.870Z,52.36
2023-03-17T11:51:38.162Z,52.17
2023-03-17T11:56:51.749Z,52.83
2023-03-17T12:02:16.023Z,52.63
2023-03-17T12:07:55.059Z,50.85
2023-03-17T12:13:16.826Z,50.14
2023-03-17T12:18:30.742Z,49.56
2023-03-17T12:23:47.993Z,49.91
2023-03-17T12:29:00.146Z,49.25
2023-03-17T12:34:25.777Z,47.44
2023-03-17T12:39:34.045Z,47.53
2023-03-17T12:44:39.451Z,47.88
2023-03-17T12:49:45.077Z,47.08
2023-03-17T12:54:51.517Z,45.96
2023-03-17T13:00:03.475Z,46.55
2023-03-17T13:05:13.038Z,47.05
2023-03-17T13:10:37.282Z,47.05
2023-03-17T13:15:40.332Z,47.54
2023-03-17T13:21:02.039Z,47.84
2023-03-17T13:26:04.536Z,47.71
2023-03-17T13:31:32.048Z,47.64
2023-03-17T13:36:44.353Z,47.18
2023-03-17T13:42:11.842Z,47.15
2023-03-17T13:47:25.095Z,46.99
2023-03-17T13:52:32.244Z,47.03
2023-03-17T13:57:37.588Z,46.18
2023-03-17T14:02:43.573Z,45.10
2023-03-17T14:07:56.993Z,46.14
2023-03-17T14:13:21.586Z,47.11
2023-03-17T14:18:42.447Z,47.55
2023-03-17T14:23:56.487Z,48.01
2023-03-17T14:29:01.042Z,48.51
2023-03-17T14:34:03.644Z,48.39
2023-03-17T14:39:07.092Z,47.76
2023-03-17T14:44:09.814Z,47.07
2023-03-17T14:49:22.569Z,47.21
2023-03-17T14:54:35.720Z,47.33
2023-03-17T14:59:41.300Z,46.83
2023-03-17T15:04:58.523Z,47.02
2023-03-17T15:10:04.407Z,47.38
2023-03-17T15:15:14.248Z,47.81
2023-03-17T15:20:19.856Z,47.99
2023-03-17T15:25:42.208Z,48.14
2023-03-17T15:30:48.688Z,48.54
2023-03-17T15:35:54.498Z,48.58
2023-03-17T15:40:57.986Z,48.81
2023-03-17T15:46:04.088Z,49.35
2023-03-17T15:51:07.074Z,49.95
2023-03-17T15:56:18.839Z,50.30
2023-03-17T16:01:21.676Z,50.61
2023-03-17T16:06:25.467Z,50.99
2023-03-17T16:11:31.234Z,51.14
2023-03-17T16:16:39.606Z,51.17
2023-03-17T16:21:42.349Z,51.54
2023-03-17T16:26:44.843Z,51.77
2023-03-17T16:31:50.052Z,52.09
2023-03-17T16:36:54.154Z,52.15
2023-03-17T16:41:57.446Z,52.41
2023-03-17T16:47:00.499Z,52.86
2023-03-17T16:52:03.083Z,53.01
2023-03-17T16:57:07.830Z,53.31
2023-03-17T17:02:15.793Z,53.30
2023-03-17T17:07:18.301Z,53.56
2023-03-17T17:12:21.052Z,53.67
2023-03-17T17:17:23.621Z,53.94
2023-03-17T17:22:26.368Z,54.10
2023-03-17T17:27:29.126Z,54.18
2023-03-17T17:32:32.002Z,54.26
2023-03-17T17:37:35.267Z,54.58
2023-03-17T17:42:37.880Z,54.81
2023-03-17T17:47:40.633Z,54.87
2023-03-17T17:52:43.158Z,54.98
2023-03-17T17:57:45.718Z,55.31
2023-03-17T18:02:48.225Z,55.39
2023-03-17T18:07:51.224Z,55.55
2023-03-17T18:12:54.014Z,55.76
2023-03-17T18:17:56.806Z,56.06
2023-03-17T18:22:59.364Z,56.26
2023-03-17T18:28:01.980Z,56.22
2023-03-17T18:33:13.361Z,56.38
2023-03-17T18:38:16.090Z,56.69
2023-03-17T18:43:18.702Z,56.80
2023-03-17T18:48:21.558Z,57.07
2023-03-17T18:53:24.955Z,57.22
2023-03-17T18:58:28.744Z,57.20
2023-03-17T19:03:32.373Z,57.37
2023-03-17T19:08:34.946Z,57.41
2023-03-17T19:13:38.066Z,57.46
2023-03-17T19:18:42.357Z,57.54
2023-03-17T19:23:45.252Z,57.92
2023-03-17T19:28:47.783Z,58.04
2023-03-17T19:33:51.740Z,58.17
2023-03-17T19:38:54.223Z,58.24
2023-03-17T19:43:56.718Z,58.23
2023-03-17T19:48:59.688Z,58.38
2023-03-17T19:54:02.195Z,58.42
2023-03-17T19:59:06.161Z,58.43
2023-03-17T20:04:11.267Z,58.52
2023-03-17T20:09:17.090Z,58.67
2023-03-17T20:14:20.741Z,58.84
2023-03-17T20:19:23.881Z,59.03
2023-03-17T20:24:28.636Z,59.08
2023-03-17T20:29:31.503Z,59.24
2023-03-17T20:34:34.676Z,59.31
2023-03-17T20:39:37.845Z,59.22
2023-03-17T20:44:41.938Z,59.24
2023-03-17T20:49:45.739Z,59.22
2023-03-17T20:54:48.631Z,59.39
2023-03-17T20:59:54.023Z,59.42
2023-03-17T21:04:56.750Z,59.41
2023-03-17T21:10:01.887Z,59.50
2023-03-17T21:15:07.745Z,59.54
2023-03-17T21:20:14.705Z,59.62
2023-03-17T21:25:17.711Z,59.68
2023-03-17T21:30:20.289Z,59.74
2023-03-17T21:35:24.887Z,59.93
2023-03-17T21:40:31.083Z,60.02
2023-03-17T21:45:33.800Z,59.96
2023-03-17T21:50:37.106Z,59.86
2023-03-17T21:55:41.309Z,59.82
2023-03-17T22:00:45.984Z,59.86
2023-03-17T22:05:50.707Z,59.88
2023-03-17T22:10:53.215Z,59.91
2023-03-17T22:15:59.493Z,59.84
2023-03-17T22:21:03.004Z,59.91
2023-03-17T22:26:05.684Z,59.83
2023-03-17T22:31:13.436Z,59.81
2023-03-17T22:36:16.380Z,59.85
2023-03-17T22:41:22.128Z,59.82
2023-03-17T22:46:25.404Z,59.79
2023-03-17T22:51:28.478Z,59.81
2023-03-17T22:56:31.129Z,59.84
2023-03-17T23:01:33.589Z,59.77
2023-03-17T23:06:36.656Z,59.81
2023-03-17T23:11:40.288Z,59.85
2023-03-17T23:16:43.119Z,59.80
2023-03-17T23:21:46.177Z,59.80
2023-03-17T23:26:48.933Z,59.85
2023-03-17T23:31:51.466Z,59.89
2023-03-17T23:36:54.132Z,59.92
2023-03-17T23:41:56.645Z,60.01
2023-03-17T23:46:59.359Z,60.05
2023-03-17T23:52:02.422Z,60.10
2023-03-17T23:57:06.416Z,60.20
